createdAt,value
2023-05-17T00:00:43.683Z,5.77
2023-05-17T00:03:11.916Z,8.47
2023-05-17T00:05:39.992Z,6.70
2023-05-17T00:08:08.027Z,5.60
2023-05-17T00:10:36.062Z,6.30
2023-05-17T00:13:04.180Z,6.00
2023-05-17T00:15:33.567Z,8.90
2023-05-17T00:18:01.887Z,9.13
2023-05-17T00:20:30.445Z,8.33
2023-05-17T00:22:58.513Z,7.87
2023-05-17T00:25:26.702Z,8.60
2023-05-17T00:27:54.905Z,6.43
2023-05-17T00:30:23.096Z,9.23
2023-05-17T00:32:52.643Z,6.07
2023-05-17T00:35:20.779Z,8.70
2023-05-17T00:37:49.096Z,10.40
2023-05-17T00:40:18.297Z,6.57
2023-05-17T00:42:46.328Z,7.50
2023-05-17T00:45:14.405Z,6.23
2023-05-17T00:47:42.678Z,5.60
2023-05-17T00:50:13.015Z,5.23
2023-05-17T00:52:41.099Z,5.73
2023-05-17T00:55:09.710Z,5.13
2023-05-17T00:57:37.898Z,8.80
2023-05-17T01:00:07.140Z,5.27
2023-05-17T01:02:37.757Z,9.40
2023-05-17T01:05:07.451Z,9.20
2023-05-17T01:07:37.017Z,9.33
2023-05-17T01:10:05.451Z,7.80
2023-05-17T01:12:44.333Z,6.53
2023-05-17T01:15:17.146Z,7.50
2023-05-17T01:17:55.359Z,9.57
2023-05-17T01:20:30.063Z,6.77
2023-05-17T01:23:12.935Z,6.90
2023-05-17T01:25:56.260Z,6.97
2023-05-17T01:28:27.190Z,7.73
2023-05-17T01:30:56.946Z,7.50
2023-05-17T01:33:25.210Z,7.07
2023-05-17T01:35:53.340Z,7.03
2023-05-17T01:38:21.372Z,6.00
2023-05-17T01:40:54.141Z,6.43
2023-05-17T01:43:28.039Z,10.07
2023-05-17T01:46:06.651Z,6.30
2023-05-17T01:48:40.997Z,6.73
2023-05-17T01:51:12.850Z,7.33
2023-05-17T01:53:47.572Z,8.40
2023-05-17T01:56:21.038Z,7.33
2023-05-17T01:58:51.922Z,6.13
2023-05-17T02:01:22.373Z,7.77
2023-05-17T02:03:51.281Z,8.80
2023-05-17T02:06:19.308Z,7.03
2023-05-17T02:08:47.411Z,9.53
2023-05-17T02:11:15.482Z,8.73
2023-05-17T02:13:43.497Z,9.87
2023-05-17T02:16:13.001Z,9.67
2023-05-17T02:18:41.358Z,6.90
2023-05-17T02:21:09.410Z,7.40
2023-05-17T02:23:38.018Z,5.13
2023-05-17T02:26:06.182Z,5.73
2023-05-17T02:28:34.300Z,7.40
2023-05-17T02:31:02.302Z,5.73
2023-05-17T02:33:31.758Z,7.17
2023-05-17T02:35:59.816Z,6.93
2023-05-17T02:38:27.906Z,7.37
2023-05-17T02:40:55.930Z,9.77
2023-05-17T02:43:24.070Z,7.53
2023-05-17T02:45:52.099Z,7.73
2023-05-17T02:48:20.138Z,8.43
2023-05-17T02:50:49.590Z,5.13
2023-05-17T02:53:17.641Z,6.93
2023-05-17T02:55:45.762Z,8.53
2023-05-17T02:58:13.825Z,6.63
2023-05-17T03:00:45.488Z,5.47
2023-05-17T03:03:13.633Z,7.57
2023-05-17T03:05:41.650Z,6.50
2023-05-17T03:08:11.099Z,9.97
2023-05-17T03:10:39.146Z,7.37
2023-05-17T03:13:07.249Z,8.17
2023-05-17T03:15:35.260Z,6.80
2023-05-17T03:18:03.364Z,7.50
2023-05-17T03:20:31.528Z,5.10
2023-05-17T03:22:59.529Z,7.13
2023-05-17T03:25:29.225Z,5.23
2023-05-17T03:27:57.424Z,6.50
2023-05-17T03:30:25.519Z,6.50
2023-05-17T03:32:54.291Z,7.43
2023-05-17T03:35:22.722Z,8.27
2023-05-17T03:37:50.793Z,6.80
2023-05-17T03:40:18.927Z,5.33
2023-05-17T03:42:48.410Z,4.93
2023-05-17T03:45:16.640Z,5.33
2023-05-17T03:47:44.766Z,7.83
2023-05-17T03:50:13.101Z,7.03
2023-05-17T03:52:42.060Z,5.37
2023-05-17T03:55:10.927Z,4.23
2023-05-17T03:57:38.976Z,5.23
2023-05-17T04:00:11.778Z,7.40
2023-05-17T04:02:39.905Z,6.57
2023-05-17T04:05:08.648Z,5.17
2023-05-17T04:07:36.875Z,7.07
2023-05-17T04:10:05.623Z,5.47
2023-05-17T04:12:33.663Z,7.07
2023-05-17T04:15:01.772Z,8.37
2023-05-17T04:17:31.390Z,5.23
2023-05-17T04:20:01.261Z,4.43
2023-05-17T04:22:29.309Z,5.77
2023-05-17T04:24:57.331Z,4.73
2023-05-17T04:27:25.458Z,4.93
2023-05-17T04:29:53.437Z,7.57
2023-05-17T04:32:21.593Z,4.33
2023-05-17T04:34:52.074Z,5.17
2023-05-17T04:37:20.192Z,7.03
2023-05-17T04:39:49.099Z,5.67
2023-05-17T04:42:17.544Z,8.30
2023-05-17T04:44:45.740Z,11.10
2023-05-17T04:47:13.887Z,3.13
2023-05-17T04:49:41.856Z,3.57
2023-05-17T04:52:11.524Z,6.77
2023-05-17T04:54:39.566Z,8.43
2023-05-17T04:57:07.690Z,7.20
2023-05-17T04:59:35.758Z,4.80
2023-05-17T05:02:03.831Z,9.50
2023-05-17T05:04:31.853Z,6.20
2023-05-17T05:06:59.887Z,4.53
2023-05-17T05:09:29.356Z,4.87
2023-05-17T05:11:57.458Z,5.10
2023-05-17T05:14:25.557Z,5.27
2023-05-17T05:16:53.662Z,5.13
2023-05-17T05:19:21.795Z,7.37
2023-05-17T05:21:49.819Z,3.67
2023-05-17T05:24:17.901Z,7.10
2023-05-17T05:26:47.407Z,6.43
2023-05-17T05:29:15.428Z,10.63
2023-05-17T05:31:43.494Z,6.40
2023-05-17T05:34:12.539Z,6.37
2023-05-17T05:36:40.657Z,6.53
2023-05-17T05:39:09.514Z,9.60
2023-05-17T05:41:37.585Z,7.70
2023-05-17T05:44:07.151Z,6.70
2023-05-17T05:46:35.330Z,6.37
2023-05-17T05:49:03.345Z,7.17
2023-05-17T05:51:31.642Z,5.90
2023-05-17T05:54:00.118Z,5.20
2023-05-17T05:56:28.262Z,9.40
2023-05-17T05:58:56.517Z,7.23
2023-05-17T06:01:26.230Z,9.23
2023-05-17T06:03:54.278Z,5.43
2023-05-17T06:06:22.383Z,4.57
2023-05-17T06:08:50.647Z,6.23
2023-05-17T06:11:20.478Z,5.07
2023-05-17T06:13:50.981Z,6.53
2023-05-17T06:16:19.150Z,4.33
2023-05-17T06:18:51.224Z,5.70
2023-05-17T06:21:19.630Z,4.70
2023-05-17T06:23:47.878Z,6.03
2023-05-17T06:26:15.949Z,3.47
2023-05-17T06:28:43.987Z,5.07
2023-05-17T06:31:11.998Z,4.03
2023-05-17T06:33:40.106Z,6.13
2023-05-17T06:36:10.145Z,6.97
2023-05-17T06:38:38.171Z,4.20
2023-05-17T06:41:06.327Z,3.73
2023-05-17T06:43:35.722Z,3.63
2023-05-17T06:46:05.735Z,5.27
2023-05-17T06:48:33.832Z,5.70
2023-05-17T06:51:02.192Z,4.27
2023-05-17T06:53:31.654Z,3.03
2023-05-17T06:55:59.804Z,4.23
2023-05-17T06:58:27.875Z,1.93
2023-05-17T07:00:56.031Z,6.33
2023-05-17T07:03:24.237Z,3.40
2023-05-17T07:05:52.432Z,6.40
2023-05-17T07:08:20.887Z,5.00
2023-05-17T07:10:52.662Z,6.53
2023-05-17T07:13:20.731Z,5.27
2023-05-17T07:15:48.857Z,6.03
2023-05-17T07:18:17.818Z,5.30
2023-05-17T07:20:46.505Z,4.73
2023-05-17T07:23:14.590Z,4.27
2023-05-17T07:25:43.174Z,7.20
2023-05-17T07:28:12.918Z,6.50
2023-05-17T07:30:40.978Z,4.87
2023-05-17T07:33:09.225Z,6.13
2023-05-17T07:35:37.314Z,4.10
2023-05-17T07:38:05.418Z,5.90
2023-05-17T07:40:33.674Z,7.03
2023-05-17T07:43:01.761Z,3.47
2023-05-17T07:45:31.584Z,6.10
2023-05-17T07:48:00.478Z,3.20
2023-05-17T07:50:29.155Z,6.13
2023-05-17T07:52:58.058Z,6.10
2023-05-17T07:55:26.176Z,3.97
2023-05-17T07:57:54.416Z,3.77
2023-05-17T08:00:23.977Z,5.73
2023-05-17T08:02:53.702Z,4.67
2023-05-17T08:05:22.331Z,7.27
2023-05-17T08:07:50.517Z,3.30
2023-05-17T08:10:18.867Z,4.67
2023-05-17T08:12:47.289Z,3.17
2023-05-17T08:15:15.336Z,4.73
2023-05-17T08:17:45.794Z,6.70
2023-05-17T08:20:15.778Z,4.70
2023-05-17T08:22:43.826Z,4.93
2023-05-17T08:25:11.990Z,3.67
2023-05-17T08:27:40.292Z,7.97
2023-05-17T08:30:14.698Z,5.37
2023-05-17T08:32:45.147Z,4.60
2023-05-17T08:35:15.424Z,4.82
2023-05-17T08:37:44.072Z,2.42
2023-05-17T08:40:12.640Z,5.35
2023-05-17T08:42:41.132Z,5.90
2023-05-17T08:45:11.138Z,3.83
2023-05-17T08:47:40.557Z,5.47
2023-05-17T08:50:09.214Z,4.07
2023-05-17T08:52:39.093Z,4.70
2023-05-17T08:55:09.070Z,4.78
2023-05-17T08:57:38.746Z,3.22
2023-05-17T09:00:12.563Z,4.47
2023-05-17T09:02:40.974Z,5.45
2023-05-17T09:05:10.813Z,3.85
2023-05-17T09:07:40.521Z,7.13
2023-05-17T09:10:09.873Z,5.00
2023-05-17T09:12:37.936Z,4.07
2023-05-17T09:15:15.921Z,3.53
2023-05-17T09:17:44.552Z,6.40
2023-05-17T09:20:13.025Z,4.38
2023-05-17T09:22:42.647Z,4.88
2023-05-17T09:25:11.552Z,7.17
2023-05-17T09:27:39.581Z,7.20
2023-05-17T09:30:12.213Z,4.18
2023-05-17T09:32:46.197Z,3.85
2023-05-17T09:35:15.114Z,4.70
2023-05-17T09:37:47.012Z,4.10
2023-05-17T09:40:25.040Z,5.28
2023-05-17T09:42:53.249Z,4.97
2023-05-17T09:45:24.750Z,4.72
2023-05-17T09:47:53.566Z,4.55
2023-05-17T09:50:24.547Z,3.38
2023-05-17T09:52:55.627Z,4.50
2023-05-17T09:55:28.459Z,6.63
2023-05-17T09:58:04.299Z,4.47
2023-05-17T10:00:33.729Z,5.60
2023-05-17T10:03:03.368Z,5.50
2023-05-17T10:05:31.705Z,4.73
2023-05-17T10:08:01.346Z,4.47
2023-05-17T10:10:30.759Z,5.07
2023-05-17T10:12:59.578Z,4.13
2023-05-17T10:15:28.713Z,4.37
2023-05-17T10:17:57.373Z,6.37
2023-05-17T10:20:25.906Z,7.00
2023-05-17T10:22:55.264Z,5.30
2023-05-17T10:25:26.584Z,5.50
2023-05-17T10:27:55.335Z,7.07
2023-05-17T10:30:24.391Z,7.20
2023-05-17T10:32:53.179Z,8.30
2023-05-17T10:35:22.057Z,4.70
2023-05-17T10:37:50.357Z,5.07
2023-05-17T10:40:20.153Z,5.30
2023-05-17T10:42:52.840Z,4.63
2023-05-17T10:45:23.034Z,4.33
2023-05-17T10:47:52.937Z,9.27
2023-05-17T10:50:24.442Z,11.20
2023-05-17T10:52:56.498Z,5.20
2023-05-17T10:55:26.506Z,7.07
2023-05-17T10:58:16.082Z,5.20
2023-05-17T11:00:46.027Z,5.77
2023-05-17T11:03:16.786Z,6.23
2023-05-17T11:05:47.804Z,6.90
2023-05-17T11:08:18.001Z,5.33
2023-05-17T11:11:11.776Z,7.47
2023-05-17T11:13:52.152Z,5.23
2023-05-17T11:16:23.728Z,4.87
2023-05-17T11:18:53.516Z,5.33
2023-05-17T11:21:23.006Z,6.07
2023-05-17T11:23:56.672Z,5.70
2023-05-17T11:26:34.189Z,6.33
2023-05-17T11:29:07.653Z,6.07
2023-05-17T11:31:37.338Z,4.93
2023-05-17T11:34:06.159Z,5.03
2023-05-17T11:36:51.200Z,5.03
2023-05-17T11:39:21.588Z,5.00
2023-05-17T11:41:51.338Z,5.17
2023-05-17T11:44:26.976Z,7.33
2023-05-17T11:47:03.429Z,4.93
2023-05-17T11:49:36.297Z,5.07
2023-05-17T11:52:05.166Z,4.90
2023-05-17T11:54:33.721Z,4.00
2023-05-17T11:57:04.349Z,4.70
2023-05-17T11:59:39.871Z,5.53
2023-05-17T12:02:08.432Z,4.33
2023-05-17T12:04:38.773Z,5.63
2023-05-17T12:07:10.484Z,4.40
2023-05-17T12:09:39.571Z,4.80
2023-05-17T12:12:08.676Z,3.77
2023-05-17T12:14:39.004Z,3.50
2023-05-17T12:17:10.287Z,5.07
2023-05-17T12:19:38.679Z,3.77
2023-05-17T12:22:08.856Z,4.63
2023-05-17T12:24:40.765Z,3.83
2023-05-17T12:27:09.097Z,5.30
2023-05-17T12:29:39.166Z,3.07
2023-05-17T12:32:09.141Z,2.87
2023-05-17T12:34:37.541Z,3.50
2023-05-17T12:37:10.317Z,3.27
2023-05-17T12:39:38.776Z,3.43
2023-05-17T12:42:08.278Z,3.13
2023-05-17T12:44:38.640Z,1.90
2023-05-17T12:47:06.997Z,3.33
2023-05-17T12:49:40.270Z,3.17
2023-05-17T12:52:09.012Z,2.10
2023-05-17T12:54:37.344Z,4.87
2023-05-17T12:57:13.897Z,4.17
2023-05-17T12:59:50.726Z,3.77
2023-05-17T13:02:21.439Z,4.10
2023-05-17T13:04:49.714Z,4.70
2023-05-17T13:07:24.765Z,5.40
2023-05-17T13:09:53.010Z,3.57
2023-05-17T13:12:23.085Z,4.67
2023-05-17T13:14:54.854Z,4.30
2023-05-17T13:17:27.357Z,4.80
2023-05-17T13:19:57.819Z,3.33
2023-05-17T13:22:26.788Z,4.60
2023-05-17T13:24:55.511Z,4.97
2023-05-17T13:27:23.735Z,4.50
2023-05-17T13:29:53.483Z,4.40
2023-05-17T13:32:22.845Z,6.03
2023-05-17T13:34:51.095Z,10.80
2023-05-17T13:37:20.227Z,4.90
2023-05-17T13:39:48.327Z,3.23
2023-05-17T13:42:16.565Z,4.13
2023-05-17T13:44:44.672Z,5.47
2023-05-17T13:47:14.510Z,5.60
2023-05-17T13:49:42.951Z,5.20
2023-05-17T13:52:13.198Z,3.50
2023-05-17T13:54:41.409Z,4.20
2023-05-17T13:57:09.585Z,4.17
2023-05-17T13:59:37.744Z,5.97
2023-05-17T14:02:05.927Z,4.33
2023-05-17T14:04:35.495Z,5.63
2023-05-17T14:07:04.410Z,5.57
2023-05-17T14:09:34.496Z,4.50
2023-05-17T14:12:03.404Z,6.57
2023-05-17T14:14:31.940Z,5.50
2023-05-17T14:17:01.473Z,4.83
2023-05-17T14:19:30.507Z,5.43
2023-05-17T14:22:00.191Z,5.43
2023-05-17T14:24:28.282Z,6.33
2023-05-17T14:26:57.666Z,5.80
2023-05-17T14:29:25.826Z,4.57
2023-05-17T14:31:53.963Z,5.97
2023-05-17T14:34:22.292Z,4.93
2023-05-17T14:36:51.005Z,6.50
2023-05-17T14:39:21.194Z,6.60
2023-05-17T14:41:49.358Z,6.97
2023-05-17T14:44:17.428Z,5.37
2023-05-17T14:46:45.539Z,4.77
2023-05-17T14:49:13.813Z,5.03
2023-05-17T14:51:42.362Z,5.57
2023-05-17T14:54:12.275Z,5.93
2023-05-17T14:56:43.339Z,5.53
2023-05-17T14:59:11.576Z,6.90
2023-05-17T15:01:39.695Z,5.13
2023-05-17T15:04:07.937Z,5.10
2023-05-17T15:06:36.213Z,5.50
2023-05-17T15:09:04.417Z,6.87
2023-05-17T15:11:33.781Z,6.60
2023-05-17T15:14:03.420Z,5.13
2023-05-17T15:16:31.759Z,5.67
2023-05-17T15:19:00.066Z,6.57
2023-05-17T15:21:28.211Z,7.13
2023-05-17T15:23:56.596Z,5.43
2023-05-17T15:26:24.652Z,5.97
2023-05-17T15:28:52.760Z,7.20
2023-05-17T15:31:23.944Z,7.30
2023-05-17T15:33:52.154Z,5.37
2023-05-17T15:36:20.267Z,7.10
2023-05-17T15:38:48.506Z,7.20
2023-05-17T15:41:18.966Z,7.43
2023-05-17T15:43:47.122Z,6.77
2023-05-17T15:46:15.298Z,6.60
2023-05-17T15:48:44.984Z,8.20
2023-05-17T15:51:13.368Z,6.97
2023-05-17T15:53:41.469Z,7.40
2023-05-17T15:56:10.253Z,6.40
2023-05-17T15:58:38.369Z,6.60
2023-05-17T16:01:07.045Z,7.87
2023-05-17T16:03:35.739Z,9.47
2023-05-17T16:06:06.200Z,7.43
2023-05-17T16:08:34.753Z,8.97
2023-05-17T16:11:03.017Z,6.77
2023-05-17T16:13:31.437Z,7.53
2023-05-17T16:16:00.229Z,8.30
2023-05-17T16:18:28.919Z,6.23
2023-05-17T16:21:01.098Z,6.93
2023-05-17T16:23:30.669Z,7.77
2023-05-17T16:25:59.088Z,6.73
2023-05-17T16:28:27.479Z,9.20
2023-05-17T16:30:57.137Z,7.47
2023-05-17T16:33:25.352Z,7.60
2023-05-17T16:35:53.453Z,5.10
2023-05-17T16:38:21.545Z,7.70
2023-05-17T16:40:51.236Z,5.33
2023-05-17T16:43:19.322Z,7.17
2023-05-17T16:45:47.752Z,8.60
2023-05-17T16:48:17.528Z,7.73
2023-05-17T16:50:45.969Z,6.97
2023-05-17T16:53:14.064Z,7.10
2023-05-17T16:55:42.224Z,5.70
2023-05-17T16:58:11.907Z,6.10
2023-05-17T17:00:40.187Z,5.97
2023-05-17T17:03:09.858Z,5.70
2023-05-17T17:05:38.312Z,6.27
2023-05-17T17:08:06.801Z,7.30
2023-05-17T17:10:35.995Z,8.17
2023-05-17T17:13:04.952Z,7.90
2023-05-17T17:15:34.498Z,6.27
2023-05-17T17:18:02.634Z,6.80
2023-05-17T17:20:30.889Z,6.17
2023-05-17T17:22:59.161Z,6.20
2023-05-17T17:25:27.421Z,6.90
2023-05-17T17:27:56.449Z,8.03
2023-05-17T17:30:24.580Z,7.90
2023-05-17T17:32:54.139Z,9.07
2023-05-17T17:35:22.515Z,6.07
2023-05-17T17:37:50.666Z,5.90
2023-05-17T17:40:19.024Z,7.17
2023-05-17T17:42:47.309Z,6.53
2023-05-17T17:45:15.455Z,7.40
2023-05-17T17:47:43.746Z,6.23
2023-05-17T17:50:13.459Z,7.87
2023-05-17T17:52:41.674Z,8.30
2023-05-17T17:55:13.033Z,7.23
2023-05-17T17:57:41.861Z,5.97
2023-05-17T18:00:11.898Z,7.00
2023-05-17T18:02:40.336Z,6.00
2023-05-17T18:05:09.218Z,6.00
2023-05-17T18:07:38.982Z,6.60
2023-05-17T18:10:08.098Z,5.40
2023-05-17T18:12:36.128Z,7.90
2023-05-17T18:15:04.326Z,7.57
2023-05-17T18:17:32.589Z,8.70
2023-05-17T18:20:00.829Z,9.00
2023-05-17T18:22:30.500Z,10.17
2023-05-17T18:25:00.235Z,7.37
2023-05-17T18:27:29.020Z,7.93
2023-05-17T18:29:57.072Z,7.27
2023-05-17T18:32:25.571Z,7.37
2023-05-17T18:34:55.040Z,8.07
2023-05-17T18:37:23.148Z,6.23
2023-05-17T18:39:51.335Z,7.07
2023-05-17T18:42:21.420Z,7.80
2023-05-17T18:44:49.495Z,6.30
2023-05-17T18:47:17.585Z,7.97
2023-05-17T18:49:47.042Z,8.43
2023-05-17T18:52:15.976Z,8.00
2023-05-17T18:54:44.089Z,9.60
2023-05-17T18:57:14.962Z,9.67
2023-05-17T18:59:44.423Z,9.33
2023-05-17T19:02:12.460Z,7.77
2023-05-17T19:04:40.672Z,7.43
2023-05-17T19:07:08.829Z,8.23
2023-05-17T19:09:36.963Z,6.43
2023-05-17T19:12:05.798Z,8.60
2023-05-17T19:14:33.939Z,6.57
2023-05-17T19:17:03.488Z,8.83
2023-05-17T19:19:32.161Z,7.93
2023-05-17T19:22:00.849Z,7.47
2023-05-17T19:24:29.106Z,8.60
2023-05-17T19:26:57.206Z,11.20
2023-05-17T19:29:27.205Z,8.03
2023-05-17T19:31:55.605Z,12.43
2023-05-17T19:34:25.215Z,6.07
2023-05-17T19:36:53.312Z,8.37
2023-05-17T19:39:21.499Z,6.27
2023-05-17T19:41:49.646Z,6.93
2023-05-17T19:44:17.768Z,8.70
2023-05-17T19:46:46.077Z,9.07
2023-05-17T19:49:14.360Z,7.37
2023-05-17T19:51:43.917Z,8.03
2023-05-17T19:54:12.065Z,6.17
2023-05-17T19:56:41.020Z,8.50
2023-05-17T19:59:09.313Z,6.00
2023-05-17T20:01:37.552Z,6.87
2023-05-17T20:04:06.006Z,6.53
2023-05-17T20:06:34.136Z,7.50
2023-05-17T20:09:04.230Z,8.13
2023-05-17T20:11:32.401Z,7.10
2023-05-17T20:14:00.526Z,7.07
2023-05-17T20:16:30.792Z,10.40
2023-05-17T20:18:59.328Z,9.07
2023-05-17T20:21:27.536Z,8.60
2023-05-17T20:24:01.537Z,11.50
2023-05-17T20:26:36.338Z,7.97
2023-05-17T20:29:06.113Z,10.60
2023-05-17T20:31:34.672Z,7.83
2023-05-17T20:34:02.865Z,7.37
2023-05-17T20:36:31.333Z,8.43
2023-05-17T20:38:59.485Z,9.67
2023-05-17T20:41:27.533Z,8.33
2023-05-17T20:43:56.987Z,9.27
2023-05-17T20:46:25.255Z,7.63
2023-05-17T20:48:55.951Z,7.90
2023-05-17T20:51:23.974Z,7.17
2023-05-17T20:53:52.040Z,10.83
2023-05-17T20:56:20.128Z,8.87
2023-05-17T20:58:49.001Z,9.87
2023-05-17T21:01:18.854Z,10.17
2023-05-17T21:03:47.115Z,8.40
2023-05-17T21:06:15.493Z,7.60
2023-05-17T21:08:43.834Z,9.00
2023-05-17T21:11:15.194Z,8.17
2023-05-17T21:13:43.278Z,7.40
2023-05-17T21:16:11.392Z,10.33
2023-05-17T21:18:41.305Z,6.93
2023-05-17T21:21:09.429Z,9.73
2023-05-17T21:23:37.515Z,9.87
2023-05-17T21:26:07.716Z,8.50
2023-05-17T21:28:36.231Z,8.13
2023-05-17T21:31:05.078Z,8.87
2023-05-17T21:33:34.322Z,10.53
2023-05-17T21:36:03.934Z,10.03
2023-05-17T21:38:32.042Z,9.07
2023-05-17T21:41:00.133Z,10.00
2023-05-17T21:43:28.293Z,10.73
2023-05-17T21:45:56.367Z,10.50
2023-05-17T21:48:24.450Z,9.37
2023-05-17T21:50:52.643Z,8.37
2023-05-17T21:53:22.652Z,8.73
2023-05-17T21:56:01.281Z,11.27
2023-05-17T21:58:29.966Z,10.67
2023-05-17T22:00:58.103Z,8.87
2023-05-17T22:03:26.383Z,9.60
2023-05-17T22:05:54.520Z,10.03
2023-05-17T22:08:23.993Z,8.80
2023-05-17T22:10:54.342Z,8.77
2023-05-17T22:13:26.309Z,8.80
2023-05-17T22:15:57.207Z,9.87
2023-05-17T22:18:27.050Z,9.63
2023-05-17T22:20:59.199Z,12.53
2023-05-17T22:23:29.091Z,11.47
2023-05-17T22:26:00.296Z,12.33
2023-05-17T22:28:28.621Z,9.57
2023-05-17T22:30:57.033Z,8.87
2023-05-17T22:33:25.227Z,11.37
2023-05-17T22:35:54.333Z,9.43
2023-05-17T22:38:23.939Z,11.23
2023-05-17T22:40:53.360Z,10.00
2023-05-17T22:43:22.280Z,13.10
2023-05-17T22:45:51.046Z,12.23
2023-05-17T22:48:20.077Z,10.50
2023-05-17T22:50:48.450Z,9.70
2023-05-17T22:53:18.487Z,10.50
2023-05-17T22:55:48.920Z,11.17
2023-05-17T22:58:18.657Z,9.87
2023-05-17T23:00:46.943Z,11.07
2023-05-17T23:03:15.242Z,13.13
2023-05-17T23:05:45.532Z,8.67
2023-05-17T23:08:15.579Z,10.40
2023-05-17T23:10:45.389Z,9.53
2023-05-17T23:13:13.969Z,12.03
2023-05-17T23:15:47.076Z,10.50
2023-05-17T23:18:16.117Z,10.13
2023-05-17T23:20:44.325Z,14.30
2023-05-17T23:23:13.335Z,15.77
2023-05-17T23:25:41.461Z,12.53
2023-05-17T23:28:09.685Z,10.73
2023-05-17T23:30:40.003Z,11.70
2023-05-17T23:33:09.820Z,10.07
2023-05-17T23:35:38.029Z,11.40
2023-05-17T23:38:07.217Z,11.10
2023-05-17T23:40:37.124Z,10.50
2023-05-17T23:43:05.469Z,12.50
2023-05-17T23:45:33.706Z,11.40
2023-05-17T23:48:01.845Z,12.50
2023-05-17T23:50:31.364Z,11.27
2023-05-17T23:53:03.685Z,12.17
2023-05-17T23:55:32.049Z,12.43
2023-05-17T23:58:00.210Z,12.00
